createdAt,value
2018-07-20T00:01:12.663Z,99.90
2018-07-20T00:03:40.100Z,99.90
2018-07-20T00:06:07.473Z,99.90
2018-07-20T00:08:34.919Z,99.90
2018-07-20T00:11:02.291Z,99.90
2018-07-20T00:13:29.626Z,99.90
2018-07-20T00:18:24.259Z,99.90
2018-07-20T00:20:51.593Z,99.90
2018-07-20T00:23:19.000Z,99.90
2018-07-20T00:25:46.320Z,99.90
2018-07-20T00:28:13.679Z,99.90
2018-07-20T00:30:41.115Z,99.90
2018-07-20T00:35:35.674Z,99.90
2018-07-20T00:38:02.988Z,99.90
2018-07-20T00:40:30.373Z,99.90
2018-07-20T00:42:57.699Z,99.90
2018-07-20T00:45:25.087Z,99.90
2018-07-20T00:47:52.408Z,99.90
2018-07-20T00:50:19.985Z,99.90
2018-07-20T00:52:47.621Z,99.90
2018-07-20T00:55:15.130Z,99.90
2018-07-20T00:57:42.569Z,99.90
2018-07-20T01:00:10.012Z,99.90
2018-07-20T01:02:37.611Z,99.90
2018-07-20T01:05:05.331Z,99.90
2018-07-20T01:09:59.838Z,99.90
2018-07-20T01:14:54.439Z,99.90
2018-07-20T01:19:48.880Z,99.90
2018-07-20T01:22:16.214Z,99.90
2018-07-20T01:24:43.581Z,99.90
2018-07-20T01:27:10.945Z,99.90
2018-07-20T01:29:38.304Z,99.90
2018-07-20T01:32:05.631Z,99.90
2018-07-20T01:37:00.162Z,99.90
2018-07-20T01:39:27.525Z,99.90
2018-07-20T01:41:54.880Z,99.90
2018-07-20T01:44:22.235Z,99.90
2018-07-20T01:46:49.707Z,99.90
2018-07-20T01:49:17.047Z,99.90
2018-07-20T01:51:44.408Z,99.90
2018-07-20T01:54:11.767Z,99.90
2018-07-20T01:56:39.167Z,99.90
2018-07-20T01:59:06.461Z,99.90
2018-07-20T02:01:33.832Z,99.90
2018-07-20T02:04:01.295Z,99.90
2018-07-20T02:06:28.621Z,99.90
2018-07-20T02:08:56.117Z,99.90
2018-07-20T02:11:23.442Z,99.90
2018-07-20T02:16:17.930Z,99.90
2018-07-20T02:18:45.421Z,99.90
2018-07-20T02:21:12.759Z,99.90
2018-07-20T02:23:40.139Z,99.90
2018-07-20T02:26:07.492Z,99.90
2018-07-20T02:28:34.825Z,99.90
2018-07-20T02:33:29.372Z,99.90
2018-07-20T02:35:56.716Z,99.90
2018-07-20T02:38:24.057Z,99.90
2018-07-20T02:40:51.537Z,99.90
2018-07-20T02:43:18.858Z,99.90
2018-07-20T02:48:13.398Z,99.90
2018-07-20T02:50:40.823Z,99.90
2018-07-20T02:55:35.358Z,99.90
2018-07-20T02:58:02.728Z,99.90
2018-07-20T03:00:30.192Z,99.90
2018-07-20T03:02:57.517Z,99.90
2018-07-20T03:05:24.993Z,99.90
2018-07-20T03:07:52.331Z,99.90
2018-07-20T03:10:19.710Z,99.90
2018-07-20T03:12:47.038Z,99.90
2018-07-20T03:15:14.416Z,99.90
2018-07-20T03:17:41.758Z,99.90
2018-07-20T03:20:09.124Z,99.90
2018-07-20T03:22:36.502Z,99.90
2018-07-20T03:25:03.827Z,99.90
2018-07-20T03:27:31.301Z,99.90
2018-07-20T03:29:58.632Z,99.90
2018-07-20T03:32:26.126Z,99.90
2018-07-20T03:34:53.455Z,99.90
2018-07-20T03:37:21.040Z,99.90
2018-07-20T03:39:48.378Z,99.90
2018-07-20T03:42:15.724Z,99.90
2018-07-20T03:44:43.094Z,99.90
2018-07-20T03:47:10.531Z,99.90
2018-07-20T03:52:04.978Z,99.90
2018-07-20T03:54:32.440Z,99.90
2018-07-20T03:56:59.775Z,99.90
2018-07-20T03:59:27.130Z,99.90
2018-07-20T04:01:54.487Z,99.90
2018-07-20T04:04:21.922Z,99.90
2018-07-20T04:14:10.748Z,99.90
2018-07-20T04:16:38.333Z,99.90
2018-07-20T04:19:05.775Z,99.90
2018-07-20T04:21:33.245Z,99.90
2018-07-20T04:24:00.606Z,99.90
2018-07-20T04:26:28.001Z,99.90
2018-07-20T04:28:55.613Z,99.90
2018-07-20T04:31:22.962Z,99.90
2018-07-20T04:33:50.346Z,99.90
2018-07-20T04:36:17.681Z,99.90
2018-07-20T04:38:45.091Z,99.90
2018-07-20T04:41:12.539Z,99.90
2018-07-20T04:43:39.935Z,99.90
2018-07-20T04:46:07.320Z,99.90
2018-07-20T04:48:34.645Z,99.90
2018-07-20T04:51:02.052Z,99.90
2018-07-20T04:53:29.479Z,99.90
2018-07-20T04:55:56.840Z,99.90
2018-07-20T04:58:24.218Z,99.90
2018-07-20T05:00:51.527Z,99.90
2018-07-20T05:03:18.909Z,99.90
2018-07-20T05:05:46.264Z,99.90
2018-07-20T05:08:13.628Z,99.90
2018-07-20T05:10:40.944Z,99.90
2018-07-20T05:15:35.471Z,99.90
2018-07-20T05:18:02.959Z,99.90
2018-07-20T05:20:30.286Z,99.90
2018-07-20T05:22:57.623Z,99.90
2018-07-20T05:27:52.661Z,99.90
2018-07-20T05:30:20.021Z,99.90
2018-07-20T05:32:47.377Z,99.90
2018-07-20T05:35:14.735Z,99.90
2018-07-20T05:37:42.173Z,99.90
2018-07-20T05:40:09.550Z,99.90
2018-07-20T05:42:36.994Z,99.90
2018-07-20T05:45:04.367Z,99.90
2018-07-20T05:47:31.803Z,99.90
2018-07-20T05:49:59.177Z,99.90
2018-07-20T05:52:26.602Z,99.90
2018-07-20T05:57:21.033Z,99.90
2018-07-20T05:59:48.378Z,99.90
2018-07-20T06:04:43.194Z,99.90
2018-07-20T06:07:10.571Z,99.40
2018-07-20T06:09:37.901Z,99.20
2018-07-20T06:14:32.582Z,99.90
2018-07-20T06:16:59.996Z,99.90
2018-07-20T06:19:27.359Z,99.90
2018-07-20T06:21:54.788Z,99.90
2018-07-20T06:24:22.184Z,99.90
2018-07-20T06:26:49.502Z,99.90
2018-07-20T06:29:16.895Z,99.90
2018-07-20T06:31:44.319Z,99.90
2018-07-20T06:34:11.690Z,99.90
2018-07-20T06:36:39.130Z,99.90
2018-07-20T06:39:07.531Z,99.90
2018-07-20T06:41:34.975Z,99.90
2018-07-20T06:44:02.577Z,99.90
2018-07-20T06:46:29.910Z,99.90
2018-07-20T06:48:57.346Z,99.90
2018-07-20T06:51:24.741Z,99.90
2018-07-20T06:53:52.063Z,99.90
2018-07-20T06:56:19.451Z,99.90
2018-07-20T06:58:46.868Z,99.90
2018-07-20T07:03:41.415Z,99.90
2018-07-20T07:06:08.874Z,99.90
2018-07-20T07:08:36.224Z,99.90
2018-07-20T07:11:03.704Z,99.90
2018-07-20T07:13:31.332Z,99.90
2018-07-20T07:15:58.908Z,99.90
2018-07-20T07:18:26.334Z,99.90
2018-07-20T07:23:20.963Z,99.90
2018-07-20T07:25:48.326Z,99.90
2018-07-20T07:28:15.788Z,99.90
2018-07-20T07:30:43.116Z,99.90
2018-07-20T07:35:40.126Z,99.90
2018-07-20T07:38:07.884Z,99.90
2018-07-20T07:40:35.648Z,99.90
2018-07-20T07:43:03.006Z,99.90
2018-07-20T07:45:30.449Z,99.90
2018-07-20T07:47:57.915Z,99.90
2018-07-20T07:50:25.184Z,99.90
2018-07-20T07:52:52.524Z,99.90
2018-07-20T07:55:19.901Z,99.90
2018-07-20T07:57:47.375Z,99.90
2018-07-20T08:00:14.708Z,99.40
2018-07-20T08:02:42.050Z,99.10
2018-07-20T08:05:09.468Z,99.20
2018-07-20T08:12:33.626Z,99.90
2018-07-20T08:15:00.846Z,99.10
2018-07-20T08:17:28.120Z,98.30
2018-07-20T08:19:55.345Z,98.20
2018-07-20T08:22:22.585Z,97.90
2018-07-20T08:24:49.830Z,97.00
2018-07-20T08:27:17.154Z,97.60
2018-07-20T08:29:44.689Z,97.60
2018-07-20T08:32:11.926Z,97.00
2018-07-20T08:37:07.968Z,96.60
2018-07-20T08:42:02.381Z,95.90
2018-07-20T08:46:56.909Z,95.00
2018-07-20T08:49:24.173Z,96.40
2018-07-20T08:51:51.425Z,96.00
2018-07-20T08:54:18.679Z,96.30
2018-07-20T08:56:45.950Z,96.40
2018-07-20T08:59:13.422Z,97.30
2018-07-20T09:01:40.623Z,96.70
2018-07-20T09:04:07.873Z,96.00
2018-07-20T09:06:35.147Z,95.60
2018-07-20T09:09:02.406Z,94.20
2018-07-20T09:11:29.684Z,94.00
2018-07-20T09:13:57.153Z,95.30
2018-07-20T09:16:24.409Z,92.90
2018-07-20T09:18:51.648Z,92.30
2018-07-20T09:21:18.920Z,92.10
2018-07-20T09:23:46.135Z,92.70
2018-07-20T09:26:13.385Z,91.00
2018-07-20T09:28:40.635Z,90.90
2018-07-20T09:31:07.902Z,86.70
2018-07-20T09:33:35.154Z,83.90
2018-07-20T09:36:02.442Z,82.10
2018-07-20T09:38:29.694Z,82.70
2018-07-20T09:40:56.940Z,80.40
2018-07-20T09:43:24.172Z,81.30
2018-07-20T09:45:51.429Z,81.00
2018-07-20T09:48:18.699Z,82.70
2018-07-20T09:50:45.911Z,83.30
2018-07-20T09:53:13.202Z,83.20
2018-07-20T09:55:40.451Z,83.80
2018-07-20T09:58:07.724Z,83.10
2018-07-20T10:00:36.985Z,81.20
2018-07-20T10:03:04.362Z,83.30
2018-07-20T10:05:31.636Z,80.50
2018-07-20T10:07:58.892Z,82.50
2018-07-20T10:10:26.151Z,79.40
2018-07-20T10:12:53.444Z,79.50
2018-07-20T10:15:20.727Z,78.70
2018-07-20T10:17:47.995Z,79.90
2018-07-20T10:20:15.215Z,75.90
2018-07-20T10:22:42.484Z,75.20
2018-07-20T10:25:09.722Z,71.70
2018-07-20T10:27:37.115Z,72.90
2018-07-20T10:30:04.849Z,72.90
2018-07-20T10:32:32.127Z,71.50
2018-07-20T10:34:59.349Z,70.40
2018-07-20T10:37:26.592Z,71.20
2018-07-20T10:42:22.323Z,73.60
2018-07-20T10:47:19.052Z,69.50
2018-07-20T10:49:47.015Z,68.80
2018-07-20T10:52:15.007Z,70.70
2018-07-20T10:54:43.017Z,70.40
2018-07-20T10:57:10.996Z,71.90
2018-07-20T10:59:38.967Z,74.30
2018-07-20T11:02:07.065Z,72.00
2018-07-20T11:04:34.993Z,72.40
2018-07-20T11:07:02.924Z,71.80
2018-07-20T11:09:30.868Z,67.40
2018-07-20T11:11:58.785Z,69.30
2018-07-20T11:14:26.727Z,69.00
2018-07-20T11:16:54.726Z,70.40
2018-07-20T11:19:22.608Z,68.50
2018-07-20T11:21:50.575Z,70.40
2018-07-20T13:37:58.673Z,64.50
2018-07-20T13:40:26.731Z,66.60
2018-07-20T13:42:54.756Z,65.80
2018-07-20T13:45:22.732Z,63.80
2018-07-20T13:47:50.822Z,65.20
2018-07-20T13:50:18.791Z,65.10
2018-07-20T13:52:46.870Z,66.70
2018-07-20T13:55:14.776Z,64.40
2018-07-20T13:57:42.832Z,66.70
2018-07-20T14:00:10.815Z,64.30
2018-07-20T14:02:38.814Z,64.70
2018-07-20T14:05:06.736Z,63.00
2018-07-20T14:07:35.528Z,64.80
2018-07-20T14:10:03.756Z,65.00
2018-07-20T14:12:31.731Z,65.50
2018-07-20T14:14:59.661Z,64.00
2018-07-20T14:17:27.636Z,63.70
2018-07-20T14:19:55.600Z,63.60
2018-07-20T14:22:23.540Z,62.40
2018-07-20T14:29:46.968Z,62.10
2018-07-20T14:32:14.905Z,61.70
2018-07-20T14:34:42.852Z,61.10
2018-07-20T14:37:10.842Z,60.40
2018-07-20T14:42:06.645Z,59.90
2018-07-20T14:44:34.516Z,61.40
2018-07-20T14:47:02.455Z,60.60
2018-07-20T14:49:30.379Z,61.30
2018-07-20T14:51:58.276Z,64.40
2018-07-20T14:54:26.199Z,63.50
2018-07-20T14:56:54.393Z,63.00
2018-07-20T14:59:22.345Z,62.80
2018-07-20T15:01:50.280Z,62.40
2018-07-20T15:04:18.159Z,63.30
2018-07-20T15:06:46.179Z,62.30
2018-07-20T15:09:14.087Z,60.90
2018-07-20T15:11:42.005Z,61.40
2018-07-20T15:14:10.316Z,61.90
2018-07-20T15:16:38.276Z,59.90
2018-07-20T15:21:34.401Z,61.70
2018-07-20T15:24:02.325Z,60.60
2018-07-20T15:26:30.296Z,61.40
2018-07-20T15:28:58.519Z,61.90
2018-07-20T15:31:26.703Z,61.60
2018-07-20T15:33:54.641Z,61.10
2018-07-20T15:36:22.612Z,62.00
2018-07-20T15:38:50.566Z,62.10
2018-07-20T15:41:18.517Z,62.30
2018-07-20T15:43:46.469Z,63.10
2018-07-20T15:46:14.399Z,63.70
2018-07-20T15:48:42.335Z,64.80
2018-07-20T15:51:10.250Z,65.10
2018-07-20T15:53:38.239Z,68.00
2018-07-20T15:56:06.145Z,68.20
2018-07-20T15:58:34.078Z,65.40
2018-07-20T16:03:29.809Z,65.10
2018-07-20T16:05:57.812Z,65.00
2018-07-20T16:08:25.868Z,62.50
2018-07-20T16:13:21.587Z,63.20
2018-07-20T16:15:49.573Z,62.40
2018-07-20T16:23:13.100Z,63.30
2018-07-20T16:25:41.127Z,62.80
2018-07-20T16:28:09.112Z,62.40
2018-07-20T16:30:37.030Z,61.70
2018-07-20T16:33:04.996Z,61.60
2018-07-20T16:35:32.910Z,62.00
2018-07-20T16:38:00.842Z,62.60
2018-07-20T16:40:28.745Z,62.60
2018-07-20T16:42:56.720Z,62.60
2018-07-20T16:45:24.664Z,59.50
2018-07-20T16:47:52.621Z,59.00
2018-07-20T16:50:20.537Z,57.50
2018-07-20T16:52:48.504Z,56.40
2018-07-20T16:55:16.459Z,56.70
2018-07-20T16:57:44.434Z,55.40
2018-07-20T17:00:12.368Z,56.00
2018-07-20T17:02:40.326Z,55.10
2018-07-20T17:05:08.273Z,55.70
2018-07-20T17:07:36.228Z,54.80
2018-07-20T17:10:04.783Z,55.10
2018-07-20T17:12:32.777Z,56.30
2018-07-20T17:15:00.677Z,57.50
2018-07-20T17:19:56.288Z,58.30
2018-07-20T17:22:24.233Z,58.60
2018-07-20T17:24:52.132Z,60.40
2018-07-20T17:27:19.367Z,61.10
2018-07-20T17:29:46.602Z,60.90
2018-07-20T17:32:13.834Z,61.60
2018-07-20T17:34:41.070Z,62.80
2018-07-20T17:37:08.363Z,64.30
2018-07-20T17:39:36.323Z,63.20
2018-07-20T17:42:04.354Z,64.90
2018-07-20T17:44:32.236Z,64.70
2018-07-20T17:47:00.224Z,66.30
2018-07-20T17:49:28.229Z,67.80
2018-07-20T17:51:56.201Z,70.00
2018-07-20T17:54:24.132Z,71.50
2018-07-20T17:56:52.098Z,72.10
2018-07-20T17:59:20.027Z,72.90
2018-07-20T18:01:47.928Z,72.50
2018-07-20T18:04:15.863Z,74.30
2018-07-20T18:06:43.774Z,86.40
2018-07-20T18:09:11.737Z,90.20
2018-07-20T18:11:39.677Z,92.40
2018-07-20T18:14:07.624Z,92.30
2018-07-20T18:16:35.651Z,92.50
2018-07-20T18:19:03.612Z,92.60
2018-07-20T18:23:59.337Z,93.80
2018-07-20T18:28:55.014Z,95.00
2018-07-20T18:31:22.961Z,96.30
2018-07-20T18:33:51.015Z,96.90
2018-07-20T18:36:18.924Z,97.70
2018-07-20T18:38:46.884Z,92.20
2018-07-20T18:41:14.787Z,90.90
2018-07-20T18:43:42.749Z,91.80
2018-07-20T18:46:10.736Z,91.60
2018-07-20T18:48:38.694Z,98.50
2018-07-20T18:51:06.898Z,96.80
2018-07-20T18:53:34.853Z,96.20
2018-07-20T18:56:02.773Z,96.00
2018-07-20T18:58:30.710Z,99.10
2018-07-20T19:00:58.660Z,99.90
2018-07-20T19:03:26.569Z,99.90
2018-07-20T19:08:22.252Z,99.90
2018-07-20T19:10:50.229Z,99.90
2018-07-20T19:13:18.282Z,99.90
2018-07-20T19:15:46.241Z,99.90
2018-07-20T19:18:14.157Z,99.90
2018-07-20T19:20:42.054Z,99.90
2018-07-20T19:23:10.027Z,99.90
2018-07-20T19:30:33.512Z,99.90
2018-07-20T19:33:01.451Z,99.90
2018-07-20T19:35:29.393Z,99.90
2018-07-20T19:37:57.419Z,99.90
2018-07-20T19:43:10.458Z,99.90
2018-07-20T19:45:38.410Z,99.90
2018-07-20T19:48:06.303Z,99.90
2018-07-20T19:50:34.221Z,99.90
2018-07-20T19:53:02.154Z,99.90
2018-07-20T19:57:57.874Z,99.90
2018-07-20T20:00:25.809Z,99.90
2018-07-20T20:02:53.712Z,99.90
2018-07-20T20:05:21.694Z,99.90
2018-07-20T20:07:49.706Z,99.90
2018-07-20T20:10:17.634Z,99.90
2018-07-20T20:12:45.617Z,99.90
2018-07-20T20:17:41.387Z,99.90
2018-07-20T20:20:11.458Z,99.90
2018-07-20T20:22:39.513Z,99.90
2018-07-20T20:25:07.441Z,99.90
2018-07-20T20:27:35.438Z,99.90
2018-07-20T20:30:03.494Z,99.90
2018-07-20T20:32:31.500Z,99.90
2018-07-20T20:34:59.451Z,99.90
2018-07-20T20:37:27.481Z,99.90
2018-07-20T20:44:50.963Z,99.90
2018-07-20T20:47:18.879Z,99.90
2018-07-20T20:49:46.876Z,99.90
2018-07-20T20:52:14.818Z,99.90
2018-07-20T20:54:42.770Z,99.90
2018-07-20T20:59:38.477Z,99.90
2018-07-20T21:02:06.577Z,99.90
2018-07-20T21:07:02.303Z,99.90
2018-07-20T21:09:30.257Z,99.90
2018-07-20T21:11:58.303Z,99.90
2018-07-20T21:14:26.179Z,99.90
2018-07-20T21:16:54.133Z,99.90
2018-07-20T21:19:22.071Z,99.90
2018-07-20T21:21:49.992Z,99.90
2018-07-20T21:24:17.902Z,99.90
2018-07-20T21:29:13.575Z,99.90
2018-07-20T21:31:41.541Z,99.90
2018-07-20T21:34:09.543Z,99.90
2018-07-20T21:36:37.531Z,99.90
2018-07-20T21:39:08.157Z,99.90
2018-07-20T21:41:36.353Z,99.90
2018-07-20T21:44:05.000Z,99.90
2018-07-20T21:46:32.948Z,99.90
2018-07-20T21:49:00.840Z,99.90
2018-07-20T21:51:28.782Z,99.90
2018-07-20T21:53:56.751Z,99.90
2018-07-20T21:56:24.728Z,99.90
2018-07-20T21:58:52.922Z,99.90
2018-07-20T22:01:20.954Z,99.90
2018-07-20T22:03:48.944Z,99.90
2018-07-20T22:06:16.886Z,99.90
2018-07-20T22:16:08.157Z,99.90
2018-07-20T22:21:05.794Z,99.90
2018-07-20T22:26:06.079Z,99.90
2018-07-20T22:28:35.808Z,99.90
2018-07-20T22:31:05.406Z,99.90
2018-07-20T22:33:42.168Z,99.90
2018-07-20T22:36:18.459Z,99.90
2018-07-20T22:38:54.751Z,99.90
2018-07-20T22:41:26.033Z,99.90
2018-07-20T22:43:57.096Z,99.90
2018-07-20T22:46:28.290Z,99.90
2018-07-20T22:48:56.567Z,99.90
2018-07-20T22:51:25.355Z,99.90
2018-07-20T22:53:53.504Z,99.90
2018-07-20T22:58:49.943Z,99.90
2018-07-20T23:06:13.863Z,99.90
2018-07-20T23:11:10.468Z,99.90
2018-07-20T23:13:38.743Z,99.90
2018-07-20T23:16:06.805Z,99.90
2018-07-20T23:18:34.848Z,99.90
2018-07-20T23:21:03.048Z,99.90
2018-07-20T23:23:31.225Z,99.90
2018-07-20T23:25:59.327Z,99.90
2018-07-20T23:28:27.389Z,99.90
2018-07-20T23:30:55.520Z,99.90
2018-07-20T23:33:23.622Z,99.90
2018-07-20T23:35:51.673Z,99.90
2018-07-20T23:38:19.786Z,99.90
2018-07-20T23:40:48.160Z,99.90
2018-07-20T23:43:16.301Z,99.90
2018-07-20T23:45:44.511Z,99.90
2018-07-20T23:48:12.644Z,99.90
2018-07-20T23:53:08.612Z,99.90
2018-07-20T23:55:36.701Z,99.90
2018-07-20T23:58:04.863Z,99.90
